sensor_id;sensor_type;location;lat;lon;timestamp;P1;durP1;ratioP1;P2;durP2;ratioP2
40072;SDS011;25774;52.256;9.356;2024-03-25T00:00:40;12.73;;;3.38;;
40072;SDS011;25774;52.256;9.356;2024-03-25T00:03:05;6.30;;;1.95;;
40072;SDS011;25774;52.256;9.356;2024-03-25T00:05:30;7.17;;;1.83;;
40072;SDS011;25774;52.256;9.356;2024-03-25T00:07:57;12.07;;;2.92;;
40072;SDS011;25774;52.256;9.356;2024-03-25T00:10:23;12.82;;;2.17;;
40072;SDS011;25774;52.256;9.356;2024-03-25T00:12:48;8.53;;;1.87;;
40072;SDS011;25774;52.256;9.356;2024-03-25T00:15:18;12.93;;;2.30;;
40072;SDS011;25774;52.256;9.356;2024-03-25T00:17:46;8.57;;;1.90;;
40072;SDS011;25774;52.256;9.356;2024-03-25T00:20:12;5.13;;;2.38;;
40072;SDS011;25774;52.256;9.356;2024-03-25T00:22:38;15.40;;;2.17;;
40072;SDS011;25774;52.256;9.356;2024-03-25T00:25:04;10.80;;;2.30;;
40072;SDS011;25774;52.256;9.356;2024-03-25T00:29:55;10.18;;;2.72;;
40072;SDS011;25774;52.256;9.356;2024-03-25T00:32:21;7.67;;;2.00;;
40072;SDS011;25774;52.256;9.356;2024-03-25T00:34:47;6.70;;;2.47;;
40072;SDS011;25774;52.256;9.356;2024-03-25T00:37:12;13.60;;;2.73;;
40072;SDS011;25774;52.256;9.356;2024-03-25T00:39:38;11.07;;;2.43;;
40072;SDS011;25774;52.256;9.356;2024-03-25T00:42:03;8.75;;;2.08;;
40072;SDS011;25774;52.256;9.356;2024-03-25T00:44:30;9.80;;;2.30;;
40072;SDS011;25774;52.256;9.356;2024-03-25T00:46:55;8.90;;;2.30;;
40072;SDS011;25774;52.256;9.356;2024-03-25T00:49:20;12.07;;;2.13;;
40072;SDS011;25774;52.256;9.356;2024-03-25T00:51:46;10.32;;;2.58;;
40072;SDS011;25774;52.256;9.356;2024-03-25T00:54:12;12.80;;;2.00;;
40072;SDS011;25774;52.256;9.356;2024-03-25T00:56:37;9.33;;;1.47;;
40072;SDS011;25774;52.256;9.356;2024-03-25T00:59:03;10.20;;;2.40;;
40072;SDS011;25774;52.256;9.356;2024-03-25T01:01:29;9.43;;;2.47;;
40072;SDS011;25774;52.256;9.356;2024-03-25T01:03:54;7.10;;;1.95;;
40072;SDS011;25774;52.256;9.356;2024-03-25T01:06:19;8.83;;;2.83;;
40072;SDS011;25774;52.256;9.356;2024-03-25T01:08:46;10.90;;;2.07;;
40072;SDS011;25774;52.256;9.356;2024-03-25T01:11:11;11.93;;;1.77;;
40072;SDS011;25774;52.256;9.356;2024-03-25T01:13:36;13.30;;;2.40;;
40072;SDS011;25774;52.256;9.356;2024-03-25T01:16:02;8.37;;;1.80;;
40072;SDS011;25774;52.256;9.356;2024-03-25T01:20:53;8.75;;;1.70;;
40072;SDS011;25774;52.256;9.356;2024-03-25T01:25:46;11.60;;;2.17;;
40072;SDS011;25774;52.256;9.356;2024-03-25T01:28:13;5.95;;;1.65;;
40072;SDS011;25774;52.256;9.356;2024-03-25T01:30:38;8.25;;;2.17;;
40072;SDS011;25774;52.256;9.356;2024-03-25T01:33:06;11.25;;;1.95;;
40072;SDS011;25774;52.256;9.356;2024-03-25T01:35:33;8.20;;;3.17;;
40072;SDS011;25774;52.256;9.356;2024-03-25T01:37:59;11.52;;;2.13;;
40072;SDS011;25774;52.256;9.356;2024-03-25T01:40:25;8.90;;;1.50;;
40072;SDS011;25774;52.256;9.356;2024-03-25T01:42:56;8.80;;;1.87;;
40072;SDS011;25774;52.256;9.356;2024-03-25T01:45:22;6.97;;;2.13;;
40072;SDS011;25774;52.256;9.356;2024-03-25T01:47:47;9.40;;;1.30;;
40072;SDS011;25774;52.256;9.356;2024-03-25T01:50:12;6.33;;;1.30;;
40072;SDS011;25774;52.256;9.356;2024-03-25T01:52:38;7.60;;;1.53;;
40072;SDS011;25774;52.256;9.356;2024-03-25T01:55:05;7.63;;;1.63;;
40072;SDS011;25774;52.256;9.356;2024-03-25T01:57:31;4.95;;;1.15;;
40072;SDS011;25774;52.256;9.356;2024-03-25T01:59:56;8.90;;;1.53;;
40072;SDS011;25774;52.256;9.356;2024-03-25T02:02:21;6.47;;;1.40;;
40072;SDS011;25774;52.256;9.356;2024-03-25T02:04:47;7.73;;;1.73;;
40072;SDS011;25774;52.256;9.356;2024-03-25T02:07:12;5.93;;;1.30;;
40072;SDS011;25774;52.256;9.356;2024-03-25T02:09:39;7.78;;;1.80;;
40072;SDS011;25774;52.256;9.356;2024-03-25T02:14:30;5.47;;;1.40;;
40072;SDS011;25774;52.256;9.356;2024-03-25T02:16:55;11.07;;;1.57;;
40072;SDS011;25774;52.256;9.356;2024-03-25T02:19:21;5.40;;;1.50;;
40072;SDS011;25774;52.256;9.356;2024-03-25T02:21:48;4.28;;;1.10;;
40072;SDS011;25774;52.256;9.356;2024-03-25T02:24:16;9.55;;;1.25;;
40072;SDS011;25774;52.256;9.356;2024-03-25T02:26:42;4.20;;;1.20;;
40072;SDS011;25774;52.256;9.356;2024-03-25T02:29:10;3.37;;;1.40;;
40072;SDS011;25774;52.256;9.356;2024-03-25T02:31:37;8.35;;;1.20;;
40072;SDS011;25774;52.256;9.356;2024-03-25T02:34:03;3.95;;;0.77;;
40072;SDS011;25774;52.256;9.356;2024-03-25T02:36:29;6.63;;;1.33;;
40072;SDS011;25774;52.256;9.356;2024-03-25T02:38:54;7.22;;;1.73;;
40072;SDS011;25774;52.256;9.356;2024-03-25T02:41:20;5.10;;;1.47;;
40072;SDS011;25774;52.256;9.356;2024-03-25T02:43:47;11.40;;;1.70;;
40072;SDS011;25774;52.256;9.356;2024-03-25T02:46:14;9.13;;;1.58;;
40072;SDS011;25774;52.256;9.356;2024-03-25T02:48:40;8.32;;;1.80;;
40072;SDS011;25774;52.256;9.356;2024-03-25T02:51:06;12.82;;;1.80;;
40072;SDS011;25774;52.256;9.356;2024-03-25T02:53:31;8.60;;;2.23;;
40072;SDS011;25774;52.256;9.356;2024-03-25T02:55:56;4.43;;;1.23;;
40072;SDS011;25774;52.256;9.356;2024-03-25T02:58:21;6.73;;;1.57;;
40072;SDS011;25774;52.256;9.356;2024-03-25T03:00:46;7.00;;;1.23;;
40072;SDS011;25774;52.256;9.356;2024-03-25T03:03:13;6.80;;;1.37;;
40072;SDS011;25774;52.256;9.356;2024-03-25T03:05:38;11.10;;;1.40;;
40072;SDS011;25774;52.256;9.356;2024-03-25T03:08:03;10.37;;;1.70;;
40072;SDS011;25774;52.256;9.356;2024-03-25T03:10:30;8.23;;;1.30;;
40072;SDS011;25774;52.256;9.356;2024-03-25T03:12:55;9.15;;;2.05;;
40072;SDS011;25774;52.256;9.356;2024-03-25T03:15:20;3.73;;;0.87;;
40072;SDS011;25774;52.256;9.356;2024-03-25T03:17:45;3.27;;;0.90;;
40072;SDS011;25774;52.256;9.356;2024-03-25T03:20:10;4.67;;;1.27;;
40072;SDS011;25774;52.256;9.356;2024-03-25T03:22:36;5.45;;;1.17;;
40072;SDS011;25774;52.256;9.356;2024-03-25T03:25:02;5.37;;;1.33;;
40072;SDS011;25774;52.256;9.356;2024-03-25T03:27:28;11.32;;;2.05;;
40072;SDS011;25774;52.256;9.356;2024-03-25T03:29:55;7.57;;;2.17;;
40072;SDS011;25774;52.256;9.356;2024-03-25T03:32:20;7.38;;;2.00;;
40072;SDS011;25774;52.256;9.356;2024-03-25T03:34:45;10.20;;;1.60;;
40072;SDS011;25774;52.256;9.356;2024-03-25T03:37:11;9.80;;;2.07;;
40072;SDS011;25774;52.256;9.356;2024-03-25T03:39:37;14.10;;;2.08;;
40072;SDS011;25774;52.256;9.356;2024-03-25T03:42:02;21.23;;;3.17;;
40072;SDS011;25774;52.256;9.356;2024-03-25T03:44:28;11.63;;;3.23;;
40072;SDS011;25774;52.256;9.356;2024-03-25T03:46:53;14.02;;;2.83;;
40072;SDS011;25774;52.256;9.356;2024-03-25T03:49:20;16.80;;;3.40;;
40072;SDS011;25774;52.256;9.356;2024-03-25T03:51:46;15.10;;;3.63;;
40072;SDS011;25774;52.256;9.356;2024-03-25T03:54:12;18.55;;;3.50;;
40072;SDS011;25774;52.256;9.356;2024-03-25T03:56:38;25.00;;;4.07;;
40072;SDS011;25774;52.256;9.356;2024-03-25T03:59:04;23.60;;;3.88;;
40072;SDS011;25774;52.256;9.356;2024-03-25T04:01:29;18.77;;;3.73;;
40072;SDS011;25774;52.256;9.356;2024-03-25T04:03:55;19.67;;;4.53;;
40072;SDS011;25774;52.256;9.356;2024-03-25T04:06:20;17.67;;;3.60;;
40072;SDS011;25774;52.256;9.356;2024-03-25T04:08:45;13.17;;;3.40;;
40072;SDS011;25774;52.256;9.356;2024-03-25T04:11:11;18.03;;;3.17;;
40072;SDS011;25774;52.256;9.356;2024-03-25T04:13:36;14.57;;;3.23;;
40072;SDS011;25774;52.256;9.356;2024-03-25T04:16:02;14.07;;;2.80;;
40072;SDS011;25774;52.256;9.356;2024-03-25T04:18:28;16.90;;;2.80;;
40072;SDS011;25774;52.256;9.356;2024-03-25T04:20:54;19.40;;;2.60;;
40072;SDS011;25774;52.256;9.356;2024-03-25T04:23:19;14.53;;;2.73;;
40072;SDS011;25774;52.256;9.356;2024-03-25T04:25:44;20.27;;;3.47;;
40072;SDS011;25774;52.256;9.356;2024-03-25T04:28:09;17.07;;;3.83;;
40072;SDS011;25774;52.256;9.356;2024-03-25T04:30:35;23.47;;;3.90;;
40072;SDS011;25774;52.256;9.356;2024-03-25T04:33:00;16.87;;;3.50;;
40072;SDS011;25774;52.256;9.356;2024-03-25T04:35:25;28.83;;;3.47;;
40072;SDS011;25774;52.256;9.356;2024-03-25T04:37:51;14.45;;;2.50;;
40072;SDS011;25774;52.256;9.356;2024-03-25T04:40:17;16.13;;;3.10;;
40072;SDS011;25774;52.256;9.356;2024-03-25T04:42:45;15.38;;;2.70;;
40072;SDS011;25774;52.256;9.356;2024-03-25T04:47:38;16.27;;;2.38;;
40072;SDS011;25774;52.256;9.356;2024-03-25T04:52:30;17.27;;;3.05;;
40072;SDS011;25774;52.256;9.356;2024-03-25T04:54:55;18.73;;;3.50;;
40072;SDS011;25774;52.256;9.356;2024-03-25T04:57:20;19.93;;;2.47;;
40072;SDS011;25774;52.256;9.356;2024-03-25T04:59:45;17.07;;;2.30;;
40072;SDS011;25774;52.256;9.356;2024-03-25T05:02:11;17.00;;;3.00;;
40072;SDS011;25774;52.256;9.356;2024-03-25T05:04:37;21.73;;;3.03;;
40072;SDS011;25774;52.256;9.356;2024-03-25T05:07:02;24.67;;;3.13;;
40072;SDS011;25774;52.256;9.356;2024-03-25T05:09:27;12.80;;;2.77;;
40072;SDS011;25774;52.256;9.356;2024-03-25T05:11:53;11.90;;;2.67;;
40072;SDS011;25774;52.256;9.356;2024-03-25T05:14:18;17.00;;;3.10;;
40072;SDS011;25774;52.256;9.356;2024-03-25T05:16:44;17.73;;;2.77;;
40072;SDS011;25774;52.256;9.356;2024-03-25T05:19:09;16.42;;;3.00;;
40072;SDS011;25774;52.256;9.356;2024-03-25T05:21:34;10.40;;;2.40;;
40072;SDS011;25774;52.256;9.356;2024-03-25T05:24:01;21.47;;;4.07;;
40072;SDS011;25774;52.256;9.356;2024-03-25T05:26:26;19.92;;;2.42;;
40072;SDS011;25774;52.256;9.356;2024-03-25T05:28:54;10.20;;;3.20;;
40072;SDS011;25774;52.256;9.356;2024-03-25T05:31:21;16.27;;;2.25;;
40072;SDS011;25774;52.256;9.356;2024-03-25T05:33:47;15.65;;;2.78;;
40072;SDS011;25774;52.256;9.356;2024-03-25T05:36:12;22.20;;;3.40;;
40072;SDS011;25774;52.256;9.356;2024-03-25T05:38:39;13.97;;;2.90;;
40072;SDS011;25774;52.256;9.356;2024-03-25T05:41:04;28.88;;;4.47;;
40072;SDS011;25774;52.256;9.356;2024-03-25T05:43:29;16.20;;;2.57;;
40072;SDS011;25774;52.256;9.356;2024-03-25T05:45:55;17.63;;;2.87;;
40072;SDS011;25774;52.256;9.356;2024-03-25T05:48:20;15.43;;;3.07;;
40072;SDS011;25774;52.256;9.356;2024-03-25T05:50:45;18.10;;;3.50;;
40072;SDS011;25774;52.256;9.356;2024-03-25T05:53:11;15.20;;;2.40;;
40072;SDS011;25774;52.256;9.356;2024-03-25T05:55:36;18.00;;;3.53;;
40072;SDS011;25774;52.256;9.356;2024-03-25T05:58:02;15.17;;;2.57;;
40072;SDS011;25774;52.256;9.356;2024-03-25T06:00:28;20.23;;;3.03;;
40072;SDS011;25774;52.256;9.356;2024-03-25T06:02:55;17.47;;;2.67;;
40072;SDS011;25774;52.256;9.356;2024-03-25T06:05:20;17.42;;;3.25;;
40072;SDS011;25774;52.256;9.356;2024-03-25T06:07:47;25.43;;;5.63;;
40072;SDS011;25774;52.256;9.356;2024-03-25T06:10:13;16.23;;;2.92;;
40072;SDS011;25774;52.256;9.356;2024-03-25T06:15:07;17.88;;;3.00;;
40072;SDS011;25774;52.256;9.356;2024-03-25T06:19:58;11.05;;;3.00;;
40072;SDS011;25774;52.256;9.356;2024-03-25T06:22:24;13.03;;;3.40;;
40072;SDS011;25774;52.256;9.356;2024-03-25T06:24:50;15.77;;;3.15;;
40072;SDS011;25774;52.256;9.356;2024-03-25T06:27:16;16.92;;;3.33;;
40072;SDS011;25774;52.256;9.356;2024-03-25T06:29:41;18.33;;;3.87;;
40072;SDS011;25774;52.256;9.356;2024-03-25T06:32:08;22.90;;;4.15;;
40072;SDS011;25774;52.256;9.356;2024-03-25T06:34:52;13.70;;;3.95;;
40072;SDS011;25774;52.256;9.356;2024-03-25T06:37:20;20.73;;;3.90;;
40072;SDS011;25774;52.256;9.356;2024-03-25T06:39:46;24.27;;;4.50;;
40072;SDS011;25774;52.256;9.356;2024-03-25T06:42:12;23.67;;;3.97;;
40072;SDS011;25774;52.256;9.356;2024-03-25T06:47:03;17.10;;;3.25;;
40072;SDS011;25774;52.256;9.356;2024-03-25T06:49:28;17.33;;;3.00;;
40072;SDS011;25774;52.256;9.356;2024-03-25T06:51:53;11.87;;;3.60;;
40072;SDS011;25774;52.256;9.356;2024-03-25T06:54:19;16.53;;;3.37;;
40072;SDS011;25774;52.256;9.356;2024-03-25T06:56:45;18.25;;;3.47;;
40072;SDS011;25774;52.256;9.356;2024-03-25T06:59:10;16.77;;;3.70;;
40072;SDS011;25774;52.256;9.356;2024-03-25T07:01:36;20.57;;;4.57;;
40072;SDS011;25774;52.256;9.356;2024-03-25T07:06:28;19.88;;;3.58;;
40072;SDS011;25774;52.256;9.356;2024-03-25T07:11:19;22.83;;;4.33;;
40072;SDS011;25774;52.256;9.356;2024-03-25T07:13:44;15.90;;;3.67;;
40072;SDS011;25774;52.256;9.356;2024-03-25T07:16:10;24.93;;;3.57;;
40072;SDS011;25774;52.256;9.356;2024-03-25T07:18:35;14.25;;;3.15;;
40072;SDS011;25774;52.256;9.356;2024-03-25T07:21:00;16.53;;;2.63;;
40072;SDS011;25774;52.256;9.356;2024-03-25T07:23:26;25.03;;;3.20;;
40072;SDS011;25774;52.256;9.356;2024-03-25T07:25:51;18.83;;;3.03;;
40072;SDS011;25774;52.256;9.356;2024-03-25T07:28:16;22.87;;;3.60;;
40072;SDS011;25774;52.256;9.356;2024-03-25T07:30:43;15.83;;;3.00;;
40072;SDS011;25774;52.256;9.356;2024-03-25T07:33:09;14.32;;;3.00;;
40072;SDS011;25774;52.256;9.356;2024-03-25T07:35:34;18.98;;;3.47;;
40072;SDS011;25774;52.256;9.356;2024-03-25T07:38:00;10.88;;;2.85;;
40072;SDS011;25774;52.256;9.356;2024-03-25T07:40:26;10.77;;;2.90;;
40072;SDS011;25774;52.256;9.356;2024-03-25T07:42:52;13.35;;;2.90;;
40072;SDS011;25774;52.256;9.356;2024-03-25T07:45:17;19.03;;;2.67;;
40072;SDS011;25774;52.256;9.356;2024-03-25T07:47:42;15.70;;;2.67;;
40072;SDS011;25774;52.256;9.356;2024-03-25T07:50:07;19.23;;;2.53;;
40072;SDS011;25774;52.256;9.356;2024-03-25T07:52:40;13.35;;;2.35;;
40072;SDS011;25774;52.256;9.356;2024-03-25T07:55:08;22.02;;;3.17;;
40072;SDS011;25774;52.256;9.356;2024-03-25T07:57:33;16.50;;;2.63;;
40072;SDS011;25774;52.256;9.356;2024-03-25T07:59:59;16.13;;;3.90;;
40072;SDS011;25774;52.256;9.356;2024-03-25T08:02:24;17.57;;;3.00;;
40072;SDS011;25774;52.256;9.356;2024-03-25T08:04:49;15.30;;;2.23;;
40072;SDS011;25774;52.256;9.356;2024-03-25T08:07:14;16.00;;;2.67;;
40072;SDS011;25774;52.256;9.356;2024-03-25T08:09:40;14.43;;;2.37;;
40072;SDS011;25774;52.256;9.356;2024-03-25T08:12:05;13.83;;;2.87;;
40072;SDS011;25774;52.256;9.356;2024-03-25T08:14:31;14.07;;;2.30;;
40072;SDS011;25774;52.256;9.356;2024-03-25T08:16:56;22.30;;;2.95;;
40072;SDS011;25774;52.256;9.356;2024-03-25T08:19:22;18.90;;;2.83;;
40072;SDS011;25774;52.256;9.356;2024-03-25T08:21:47;19.00;;;3.03;;
40072;SDS011;25774;52.256;9.356;2024-03-25T08:24:14;14.43;;;2.17;;
40072;SDS011;25774;52.256;9.356;2024-03-25T08:26:41;16.45;;;2.92;;
40072;SDS011;25774;52.256;9.356;2024-03-25T08:29:07;17.70;;;3.47;;
40072;SDS011;25774;52.256;9.356;2024-03-25T08:31:32;17.87;;;2.97;;
40072;SDS011;25774;52.256;9.356;2024-03-25T08:33:57;18.27;;;2.77;;
40072;SDS011;25774;52.256;9.356;2024-03-25T08:36:23;11.07;;;2.00;;
40072;SDS011;25774;52.256;9.356;2024-03-25T08:38:48;20.77;;;2.67;;
40072;SDS011;25774;52.256;9.356;2024-03-25T08:41:16;18.27;;;2.97;;
40072;SDS011;25774;52.256;9.356;2024-03-25T08:43:42;15.15;;;3.00;;
40072;SDS011;25774;52.256;9.356;2024-03-25T08:46:08;16.88;;;2.30;;
40072;SDS011;25774;52.256;9.356;2024-03-25T08:48:33;15.90;;;3.25;;
40072;SDS011;25774;52.256;9.356;2024-03-25T08:50:58;13.37;;;2.23;;
40072;SDS011;25774;52.256;9.356;2024-03-25T08:53:24;15.03;;;2.70;;
40072;SDS011;25774;52.256;9.356;2024-03-25T08:55:49;10.20;;;1.93;;
40072;SDS011;25774;52.256;9.356;2024-03-25T08:58:14;15.37;;;2.73;;
40072;SDS011;25774;52.256;9.356;2024-03-25T09:00:40;15.73;;;2.35;;
40072;SDS011;25774;52.256;9.356;2024-03-25T09:03:05;18.17;;;2.50;;
40072;SDS011;25774;52.256;9.356;2024-03-25T09:05:32;16.27;;;3.63;;
40072;SDS011;25774;52.256;9.356;2024-03-25T09:07:58;16.63;;;2.55;;
40072;SDS011;25774;52.256;9.356;2024-03-25T09:10:25;21.00;;;2.83;;
40072;SDS011;25774;52.256;9.356;2024-03-25T09:13:08;15.27;;;2.42;;
40072;SDS011;25774;52.256;9.356;2024-03-25T09:15:35;10.07;;;1.87;;
40072;SDS011;25774;52.256;9.356;2024-03-25T09:18:00;11.85;;;1.70;;
40072;SDS011;25774;52.256;9.356;2024-03-25T09:20:25;12.73;;;1.53;;
40072;SDS011;25774;52.256;9.356;2024-03-25T09:22:52;9.55;;;1.63;;
40072;SDS011;25774;52.256;9.356;2024-03-25T09:25:17;10.05;;;1.40;;
40072;SDS011;25774;52.256;9.356;2024-03-25T09:27:49;10.13;;;1.17;;
40072;SDS011;25774;52.256;9.356;2024-03-25T09:30:15;12.00;;;1.55;;
40072;SDS011;25774;52.256;9.356;2024-03-25T09:32:42;12.35;;;2.28;;
40072;SDS011;25774;52.256;9.356;2024-03-25T09:35:10;13.88;;;1.70;;
40072;SDS011;25774;52.256;9.356;2024-03-25T09:37:35;9.17;;;1.30;;
40072;SDS011;25774;52.256;9.356;2024-03-25T09:40:01;8.55;;;1.33;;
40072;SDS011;25774;52.256;9.356;2024-03-25T09:42:28;9.65;;;1.77;;
40072;SDS011;25774;52.256;9.356;2024-03-25T09:44:53;7.15;;;1.38;;
40072;SDS011;25774;52.256;9.356;2024-03-25T09:47:19;10.30;;;1.23;;
40072;SDS011;25774;52.256;9.356;2024-03-25T09:49:46;12.23;;;1.47;;
40072;SDS011;25774;52.256;9.356;2024-03-25T09:52:11;5.15;;;0.90;;
40072;SDS011;25774;52.256;9.356;2024-03-25T09:54:37;9.13;;;1.10;;
40072;SDS011;25774;52.256;9.356;2024-03-25T09:57:03;10.27;;;1.50;;
40072;SDS011;25774;52.256;9.356;2024-03-25T09:59:29;7.38;;;1.10;;
40072;SDS011;25774;52.256;9.356;2024-03-25T10:01:55;8.13;;;1.20;;
40072;SDS011;25774;52.256;9.356;2024-03-25T10:04:21;7.60;;;1.23;;
40072;SDS011;25774;52.256;9.356;2024-03-25T10:06:48;13.17;;;1.53;;
40072;SDS011;25774;52.256;9.356;2024-03-25T10:09:13;6.90;;;1.30;;
40072;SDS011;25774;52.256;9.356;2024-03-25T10:11:43;10.75;;;1.38;;
40072;SDS011;25774;52.256;9.356;2024-03-25T10:14:08;10.83;;;1.67;;
40072;SDS011;25774;52.256;9.356;2024-03-25T10:16:34;12.03;;;2.40;;
40072;SDS011;25774;52.256;9.356;2024-03-25T10:18:59;10.07;;;1.40;;
40072;SDS011;25774;52.256;9.356;2024-03-25T10:21:24;12.93;;;2.10;;
40072;SDS011;25774;52.256;9.356;2024-03-25T10:23:50;16.23;;;2.25;;
40072;SDS011;25774;52.256;9.356;2024-03-25T10:26:28;11.20;;;1.67;;
40072;SDS011;25774;52.256;9.356;2024-03-25T10:29:04;14.10;;;2.15;;
40072;SDS011;25774;52.256;9.356;2024-03-25T10:31:31;11.88;;;1.80;;
40072;SDS011;25774;52.256;9.356;2024-03-25T10:33:56;9.40;;;1.97;;
40072;SDS011;25774;52.256;9.356;2024-03-25T10:36:22;8.17;;;1.90;;
40072;SDS011;25774;52.256;9.356;2024-03-25T10:38:49;12.85;;;2.63;;
40072;SDS011;25774;52.256;9.356;2024-03-25T10:41:17;11.80;;;2.20;;
40072;SDS011;25774;52.256;9.356;2024-03-25T10:43:43;8.30;;;1.90;;
40072;SDS011;25774;52.256;9.356;2024-03-25T10:48:37;12.90;;;2.03;;
40072;SDS011;25774;52.256;9.356;2024-03-25T10:51:05;12.27;;;1.75;;
40072;SDS011;25774;52.256;9.356;2024-03-25T10:53:32;6.25;;;1.27;;
40072;SDS011;25774;52.256;9.356;2024-03-25T10:55:57;5.63;;;1.27;;
40072;SDS011;25774;52.256;9.356;2024-03-25T10:58:22;7.27;;;1.33;;
40072;SDS011;25774;52.256;9.356;2024-03-25T11:00:48;9.43;;;1.05;;
40072;SDS011;25774;52.256;9.356;2024-03-25T11:03:13;6.27;;;1.33;;
40072;SDS011;25774;52.256;9.356;2024-03-25T11:05:39;5.33;;;1.00;;
40072;SDS011;25774;52.256;9.356;2024-03-25T11:08:14;5.10;;;1.00;;
40072;SDS011;25774;52.256;9.356;2024-03-25T11:10:41;5.03;;;1.02;;
40072;SDS011;25774;52.256;9.356;2024-03-25T11:13:13;8.70;;;1.42;;
40072;SDS011;25774;52.256;9.356;2024-03-25T11:15:45;6.13;;;1.05;;
40072;SDS011;25774;52.256;9.356;2024-03-25T11:18:11;7.15;;;1.60;;
40072;SDS011;25774;52.256;9.356;2024-03-25T11:20:36;8.70;;;1.50;;
40072;SDS011;25774;52.256;9.356;2024-03-25T11:23:08;7.70;;;1.42;;
40072;SDS011;25774;52.256;9.356;2024-03-25T11:25:34;9.45;;;1.63;;
40072;SDS011;25774;52.256;9.356;2024-03-25T11:28:01;7.75;;;1.20;;
40072;SDS011;25774;52.256;9.356;2024-03-25T11:32:52;5.53;;;1.35;;
40072;SDS011;25774;52.256;9.356;2024-03-25T11:35:18;9.15;;;2.03;;
40072;SDS011;25774;52.256;9.356;2024-03-25T11:37:43;8.83;;;1.43;;
40072;SDS011;25774;52.256;9.356;2024-03-25T11:40:09;7.53;;;1.15;;
40072;SDS011;25774;52.256;9.356;2024-03-25T11:42:38;8.52;;;1.25;;
40072;SDS011;25774;52.256;9.356;2024-03-25T11:45:03;10.25;;;1.42;;
40072;SDS011;25774;52.256;9.356;2024-03-25T11:47:29;15.70;;;1.77;;
40072;SDS011;25774;52.256;9.356;2024-03-25T11:49:54;6.07;;;1.50;;
40072;SDS011;25774;52.256;9.356;2024-03-25T11:52:20;9.37;;;1.53;;
40072;SDS011;25774;52.256;9.356;2024-03-25T11:54:53;12.75;;;1.55;;
40072;SDS011;25774;52.256;9.356;2024-03-25T11:57:18;9.60;;;1.20;;
40072;SDS011;25774;52.256;9.356;2024-03-25T11:59:43;8.03;;;1.20;;
40072;SDS011;25774;52.256;9.356;2024-03-25T12:02:10;7.53;;;1.07;;
40072;SDS011;25774;52.256;9.356;2024-03-25T12:04:35;7.18;;;1.10;;
40072;SDS011;25774;52.256;9.356;2024-03-25T12:07:01;6.30;;;1.30;;
40072;SDS011;25774;52.256;9.356;2024-03-25T12:09:26;9.40;;;1.30;;
40072;SDS011;25774;52.256;9.356;2024-03-25T12:12:11;6.72;;;1.25;;
40072;SDS011;25774;52.256;9.356;2024-03-25T12:14:36;9.73;;;1.43;;
40072;SDS011;25774;52.256;9.356;2024-03-25T12:17:02;5.50;;;1.20;;
40072;SDS011;25774;52.256;9.356;2024-03-25T12:22:00;10.88;;;1.45;;
40072;SDS011;25774;52.256;9.356;2024-03-25T12:24:26;7.22;;;1.30;;
40072;SDS011;25774;52.256;9.356;2024-03-25T12:26:51;7.63;;;1.50;;
40072;SDS011;25774;52.256;9.356;2024-03-25T12:29:17;5.20;;;1.17;;
40072;SDS011;25774;52.256;9.356;2024-03-25T12:31:42;5.90;;;1.10;;
40072;SDS011;25774;52.256;9.356;2024-03-25T12:34:12;5.50;;;1.17;;
40072;SDS011;25774;52.256;9.356;2024-03-25T12:36:38;7.40;;;1.10;;
40072;SDS011;25774;52.256;9.356;2024-03-25T12:39:03;6.93;;;1.05;;
40072;SDS011;25774;52.256;9.356;2024-03-25T12:41:29;7.95;;;1.23;;
40072;SDS011;25774;52.256;9.356;2024-03-25T12:43:54;8.07;;;1.37;;
40072;SDS011;25774;52.256;9.356;2024-03-25T12:46:19;4.73;;;1.27;;
40072;SDS011;25774;52.256;9.356;2024-03-25T12:48:45;6.17;;;1.10;;
40072;SDS011;25774;52.256;9.356;2024-03-25T12:51:14;8.18;;;1.65;;
40072;SDS011;25774;52.256;9.356;2024-03-25T12:53:40;5.88;;;1.08;;
40072;SDS011;25774;52.256;9.356;2024-03-25T12:56:05;6.43;;;1.27;;
40072;SDS011;25774;52.256;9.356;2024-03-25T12:58:31;6.97;;;1.30;;
40072;SDS011;25774;52.256;9.356;2024-03-25T13:00:56;10.27;;;1.93;;
40072;SDS011;25774;52.256;9.356;2024-03-25T13:03:22;9.50;;;1.50;;
40072;SDS011;25774;52.256;9.356;2024-03-25T13:05:47;10.75;;;1.80;;
40072;SDS011;25774;52.256;9.356;2024-03-25T13:08:13;9.60;;;1.50;;
40072;SDS011;25774;52.256;9.356;2024-03-25T13:10:38;7.60;;;1.70;;
40072;SDS011;25774;52.256;9.356;2024-03-25T13:13:03;5.83;;;1.60;;
40072;SDS011;25774;52.256;9.356;2024-03-25T13:15:30;10.93;;;1.35;;
40072;SDS011;25774;52.256;9.356;2024-03-25T13:17:55;5.73;;;1.23;;
40072;SDS011;25774;52.256;9.356;2024-03-25T13:20:20;32.67;;;13.63;;
40072;SDS011;25774;52.256;9.356;2024-03-25T13:22:46;10.53;;;1.93;;
40072;SDS011;25774;52.256;9.356;2024-03-25T13:25:12;7.32;;;1.10;;
40072;SDS011;25774;52.256;9.356;2024-03-25T13:27:38;11.00;;;4.17;;
40072;SDS011;25774;52.256;9.356;2024-03-25T13:30:04;8.15;;;1.77;;
40072;SDS011;25774;52.256;9.356;2024-03-25T13:32:29;8.25;;;1.38;;
40072;SDS011;25774;52.256;9.356;2024-03-25T13:34:55;9.60;;;1.30;;
40072;SDS011;25774;52.256;9.356;2024-03-25T13:37:21;7.80;;;1.53;;
40072;SDS011;25774;52.256;9.356;2024-03-25T13:39:46;8.27;;;2.00;;
40072;SDS011;25774;52.256;9.356;2024-03-25T13:42:11;5.50;;;0.93;;
40072;SDS011;25774;52.256;9.356;2024-03-25T13:44:37;6.73;;;1.40;;
40072;SDS011;25774;52.256;9.356;2024-03-25T13:47:02;7.17;;;1.40;;
40072;SDS011;25774;52.256;9.356;2024-03-25T13:49:28;6.28;;;1.17;;
40072;SDS011;25774;52.256;9.356;2024-03-25T13:51:57;7.07;;;1.52;;
40072;SDS011;25774;52.256;9.356;2024-03-25T13:54:29;10.43;;;1.45;;
40072;SDS011;25774;52.256;9.356;2024-03-25T13:56:56;6.20;;;1.25;;
40072;SDS011;25774;52.256;9.356;2024-03-25T13:59:22;10.32;;;1.40;;
40072;SDS011;25774;52.256;9.356;2024-03-25T14:01:48;7.90;;;1.50;;
40072;SDS011;25774;52.256;9.356;2024-03-25T14:04:13;7.57;;;1.33;;
40072;SDS011;25774;52.256;9.356;2024-03-25T14:06:38;7.63;;;1.90;;
40072;SDS011;25774;52.256;9.356;2024-03-25T14:09:04;8.87;;;1.20;;
40072;SDS011;25774;52.256;9.356;2024-03-25T14:11:38;6.30;;;1.20;;
40072;SDS011;25774;52.256;9.356;2024-03-25T14:14:03;7.97;;;1.40;;
40072;SDS011;25774;52.256;9.356;2024-03-25T14:16:28;5.07;;;1.27;;
40072;SDS011;25774;52.256;9.356;2024-03-25T14:18:55;6.03;;;1.25;;
40072;SDS011;25774;52.256;9.356;2024-03-25T14:21:20;9.63;;;1.38;;
40072;SDS011;25774;52.256;9.356;2024-03-25T14:23:45;6.67;;;1.20;;
40072;SDS011;25774;52.256;9.356;2024-03-25T14:26:11;5.07;;;1.20;;
40072;SDS011;25774;52.256;9.356;2024-03-25T14:28:37;4.03;;;0.93;;
40072;SDS011;25774;52.256;9.356;2024-03-25T14:31:02;3.37;;;0.80;;
40072;SDS011;25774;52.256;9.356;2024-03-25T14:33:29;7.33;;;1.27;;
40072;SDS011;25774;52.256;9.356;2024-03-25T14:35:54;9.43;;;1.20;;
40072;SDS011;25774;52.256;9.356;2024-03-25T14:38:19;5.37;;;1.20;;
40072;SDS011;25774;52.256;9.356;2024-03-25T14:40:46;6.27;;;1.20;;
40072;SDS011;25774;52.256;9.356;2024-03-25T14:43:11;6.25;;;1.20;;
40072;SDS011;25774;52.256;9.356;2024-03-25T14:45:36;3.93;;;0.73;;
40072;SDS011;25774;52.256;9.356;2024-03-25T14:48:01;9.77;;;1.50;;
40072;SDS011;25774;52.256;9.356;2024-03-25T14:50:27;5.05;;;1.13;;
40072;SDS011;25774;52.256;9.356;2024-03-25T14:52:52;5.10;;;1.00;;
40072;SDS011;25774;52.256;9.356;2024-03-25T14:55:18;5.20;;;0.80;;
40072;SDS011;25774;52.256;9.356;2024-03-25T14:57:43;5.57;;;1.03;;
40072;SDS011;25774;52.256;9.356;2024-03-25T15:00:08;8.23;;;1.33;;
40072;SDS011;25774;52.256;9.356;2024-03-25T15:02:33;4.40;;;1.20;;
40072;SDS011;25774;52.256;9.356;2024-03-25T15:04:59;5.03;;;1.00;;
40072;SDS011;25774;52.256;9.356;2024-03-25T15:07:26;6.47;;;1.47;;